createdAt,value
2019-02-25T00:00:08.488Z,73.50
2019-02-25T00:02:37.712Z,73.50
2019-02-25T00:05:06.686Z,72.80
2019-02-25T00:07:41.742Z,71.80
2019-02-25T00:10:10.606Z,72.30
2019-02-25T00:12:39.353Z,72.40
2019-02-25T00:15:15.616Z,73.00
2019-02-25T00:17:44.377Z,72.30
2019-02-25T00:20:13.305Z,72.50
2019-02-25T00:22:48.912Z,73.60
2019-02-25T00:25:17.802Z,73.30
2019-02-25T00:27:46.556Z,73.30
2019-02-25T00:30:30.060Z,73.30
2019-02-25T00:33:05.408Z,73.00
2019-02-25T00:35:47.836Z,73.60
2019-02-25T00:38:16.624Z,74.80
2019-02-25T00:40:45.385Z,75.00
2019-02-25T00:43:20.682Z,74.60
2019-02-25T00:45:49.397Z,74.70
2019-02-25T00:48:18.153Z,75.40
2019-02-25T00:50:53.885Z,75.60
2019-02-25T00:53:22.892Z,76.00
2019-02-25T00:55:51.750Z,76.70
2019-02-25T00:58:27.056Z,77.50
2019-02-25T01:00:55.810Z,77.50
2019-02-25T01:03:24.662Z,77.60
2019-02-25T01:05:59.913Z,78.90
2019-02-25T01:08:28.700Z,79.80
2019-02-25T01:10:57.456Z,79.10
2019-02-25T01:13:32.537Z,79.70
2019-02-25T01:16:01.290Z,80.80
2019-02-25T01:18:30.064Z,81.10
2019-02-25T01:21:05.426Z,82.20
2019-02-25T01:23:34.154Z,82.90
2019-02-25T01:26:02.922Z,82.60
2019-02-25T01:28:37.773Z,85.30
2019-02-25T01:31:13.128Z,85.30
2019-02-25T01:33:54.699Z,85.00
2019-02-25T01:36:29.912Z,86.40
2019-02-25T01:39:04.893Z,85.90
2019-02-25T01:41:33.634Z,85.30
2019-02-25T01:44:02.454Z,85.00
2019-02-25T01:46:38.850Z,85.50
2019-02-25T01:49:07.639Z,86.20
2019-02-25T01:51:36.377Z,85.50
2019-02-25T01:54:11.402Z,85.80
2019-02-25T01:56:40.157Z,86.00
2019-02-25T01:59:08.919Z,86.10
2019-02-25T02:01:44.497Z,85.70
2019-02-25T02:04:13.280Z,86.60
2019-02-25T02:06:42.128Z,86.40
2019-02-25T02:09:17.478Z,87.60
2019-02-25T02:11:46.188Z,87.80
2019-02-25T02:14:15.054Z,88.50
2019-02-25T02:16:50.793Z,89.30
2019-02-25T02:19:19.531Z,90.10
2019-02-25T02:21:48.281Z,90.30
2019-02-25T02:24:23.943Z,90.50
2019-02-25T02:26:52.672Z,90.70
2019-02-25T02:29:21.416Z,91.00
2019-02-25T02:32:03.716Z,91.00
2019-02-25T02:34:39.120Z,91.50
2019-02-25T02:37:20.183Z,91.30
2019-02-25T02:39:48.928Z,91.30
2019-02-25T02:42:21.841Z,91.30
2019-02-25T02:45:20.384Z,91.40
2019-02-25T02:48:04.045Z,92.00
2019-02-25T02:50:39.892Z,91.60
2019-02-25T02:53:08.672Z,91.40
2019-02-25T02:55:37.362Z,91.30
2019-02-25T02:58:12.806Z,92.30
2019-02-25T03:00:41.601Z,92.60
2019-02-25T03:03:11.002Z,92.40
2019-02-25T03:05:46.621Z,94.30
2019-02-25T03:08:15.353Z,95.40
2019-02-25T03:10:44.868Z,96.40
2019-02-25T03:13:20.259Z,97.20
2019-02-25T03:15:49.034Z,97.50
2019-02-25T03:18:17.815Z,99.90
2019-02-25T03:20:52.867Z,99.70
2019-02-25T03:23:21.583Z,99.90
2019-02-25T03:25:51.053Z,99.90
2019-02-25T03:28:26.215Z,99.90
2019-02-25T03:30:54.960Z,99.90
2019-02-25T03:33:43.869Z,99.90
2019-02-25T03:36:12.670Z,99.90
2019-02-25T03:38:41.399Z,99.90
2019-02-25T03:41:16.881Z,99.90
2019-02-25T03:43:45.662Z,99.90
2019-02-25T03:46:14.415Z,99.90
2019-02-25T03:48:49.570Z,99.90
2019-02-25T03:51:18.367Z,99.90
2019-02-25T03:53:47.447Z,99.90
2019-02-25T03:56:23.109Z,99.90
2019-02-25T03:58:51.856Z,99.90
2019-02-25T04:01:20.633Z,99.90
2019-02-25T04:03:56.407Z,99.90
2019-02-25T04:06:25.304Z,99.90
2019-02-25T04:08:54.043Z,99.90
2019-02-25T04:11:29.548Z,99.90
2019-02-25T04:13:58.285Z,99.90
2019-02-25T04:16:27.101Z,99.90
2019-02-25T04:19:02.068Z,99.90
2019-02-25T04:21:30.781Z,99.90
2019-02-25T04:23:59.529Z,99.90
2019-02-25T04:26:35.322Z,99.90
2019-02-25T04:29:04.621Z,99.90
2019-02-25T04:31:45.987Z,99.90
2019-02-25T04:34:33.781Z,99.90
2019-02-25T04:37:09.696Z,99.90
2019-02-25T04:39:38.531Z,99.90
2019-02-25T04:42:07.420Z,99.90
2019-02-25T04:44:43.137Z,99.90
2019-02-25T04:47:12.695Z,99.90
2019-02-25T04:49:43.888Z,99.90
2019-02-25T04:52:20.327Z,99.90
2019-02-25T04:54:49.177Z,99.90
2019-02-25T04:57:18.026Z,99.90
2019-02-25T04:59:53.981Z,99.90
2019-02-25T05:02:25.110Z,99.90
2019-02-25T05:05:14.336Z,99.90
2019-02-25T05:07:43.370Z,99.90
2019-02-25T05:10:20.124Z,99.90
2019-02-25T05:12:54.540Z,99.90
2019-02-25T05:18:15.667Z,99.90
2019-02-25T05:20:59.112Z,99.90
2019-02-25T05:23:28.963Z,99.90
2019-02-25T05:25:57.728Z,99.90
2019-02-25T05:28:32.694Z,99.90
2019-02-25T05:31:01.440Z,99.90
2019-02-25T05:33:30.273Z,99.90
2019-02-25T05:36:11.681Z,99.90
2019-02-25T05:38:41.622Z,99.90
2019-02-25T05:41:10.446Z,99.90
2019-02-25T05:43:47.986Z,99.90
2019-02-25T05:46:16.759Z,99.90
2019-02-25T05:48:45.761Z,99.90
2019-02-25T05:51:20.995Z,99.90
2019-02-25T05:53:49.800Z,99.90
2019-02-25T05:56:18.697Z,99.90
2019-02-25T05:58:56.665Z,99.90
2019-02-25T06:01:27.732Z,99.90
2019-02-25T06:04:03.596Z,99.90
2019-02-25T06:06:32.335Z,99.90
2019-02-25T06:09:01.265Z,99.90
2019-02-25T06:11:36.440Z,99.90
2019-02-25T06:14:05.914Z,99.90
2019-02-25T06:16:47.188Z,99.90
2019-02-25T06:19:24.878Z,99.90
2019-02-25T06:21:59.869Z,99.90
2019-02-25T06:24:28.697Z,99.90
2019-02-25T06:27:17.979Z,99.90
2019-02-25T06:29:53.508Z,99.90
2019-02-25T06:32:30.832Z,99.90
2019-02-25T06:34:59.603Z,99.90
2019-02-25T06:37:41.980Z,99.90
2019-02-25T06:40:15.217Z,99.90
2019-02-25T06:42:43.389Z,99.90
2019-02-25T06:45:20.980Z,99.90
2019-02-25T06:47:49.726Z,99.90
2019-02-25T06:50:18.994Z,99.90
2019-02-25T06:52:54.362Z,99.90
2019-02-25T06:55:23.193Z,99.90
2019-02-25T06:57:51.969Z,99.90
2019-02-25T07:00:27.837Z,99.90
2019-02-25T07:02:56.654Z,99.90
2019-02-25T07:05:54.145Z,99.90
2019-02-25T07:08:29.699Z,99.90
2019-02-25T07:11:22.956Z,99.90
2019-02-25T07:14:15.088Z,99.90
2019-02-25T07:17:08.319Z,99.90
2019-02-25T07:20:02.705Z,99.90
2019-02-25T07:23:09.308Z,99.90
2019-02-25T07:25:55.982Z,99.90
2019-02-25T07:28:48.832Z,99.90
2019-02-25T07:31:36.279Z,99.90
2019-02-25T07:34:23.828Z,99.90
2019-02-25T07:37:10.366Z,99.90
2019-02-25T07:39:57.586Z,99.90
2019-02-25T07:42:46.504Z,99.90
2019-02-25T07:45:40.140Z,99.90
2019-02-25T07:48:14.774Z,99.90
2019-02-25T07:51:09.541Z,99.90
2019-02-25T07:53:47.955Z,99.90
2019-02-25T07:56:30.925Z,99.90
2019-02-25T07:59:08.498Z,99.90
2019-02-25T08:01:59.307Z,99.90
2019-02-25T08:04:40.246Z,99.90
2019-02-25T08:07:32.734Z,99.90
2019-02-25T08:10:17.323Z,99.90
2019-02-25T08:12:58.909Z,99.90
2019-02-25T08:15:32.831Z,99.90
2019-02-25T08:18:33.130Z,99.90
2019-02-25T08:21:30.753Z,99.90
2019-02-25T08:24:14.555Z,99.90
2019-02-25T08:26:55.077Z,99.90
2019-02-25T08:29:58.263Z,99.90
2019-02-25T08:32:44.707Z,99.90
2019-02-25T08:35:56.497Z,99.90
2019-02-25T08:38:42.840Z,99.90
2019-02-25T08:41:33.416Z,99.90
2019-02-25T08:44:10.805Z,99.90
2019-02-25T08:47:00.194Z,99.90
2019-02-25T08:49:32.661Z,99.90
2019-02-25T08:52:01.490Z,99.90
2019-02-25T08:54:36.837Z,99.90
2019-02-25T08:57:05.716Z,99.90
2019-02-25T08:59:34.417Z,99.90
2019-02-25T09:02:10.077Z,99.90
2019-02-25T09:04:39.685Z,99.90
2019-02-25T09:07:08.582Z,99.90
2019-02-25T09:09:44.196Z,99.90
2019-02-25T09:12:13.337Z,99.90
2019-02-25T09:14:42.079Z,99.90
2019-02-25T09:17:18.826Z,99.90
2019-02-25T09:19:54.039Z,99.90
2019-02-25T09:22:36.072Z,99.90
2019-02-25T09:25:05.322Z,99.90
2019-02-25T09:27:34.118Z,99.90
2019-02-25T09:30:09.089Z,99.90
2019-02-25T09:32:37.952Z,99.90
2019-02-25T09:35:06.883Z,99.90
2019-02-25T09:37:42.193Z,99.90
2019-02-25T09:40:13.134Z,99.90
2019-02-25T09:42:55.204Z,99.90
2019-02-25T09:45:23.975Z,99.90
2019-02-25T09:47:52.756Z,99.90
2019-02-25T09:50:28.519Z,99.90
2019-02-25T09:52:57.425Z,99.90
2019-02-25T09:55:26.844Z,99.90
2019-02-25T09:58:02.828Z,99.90
2019-02-25T10:00:32.137Z,99.90
2019-02-25T10:03:00.888Z,99.90
2019-02-25T10:05:36.169Z,99.90
2019-02-25T10:08:05.203Z,99.90
2019-02-25T10:10:34.003Z,99.90
2019-02-25T10:13:09.748Z,99.90
2019-02-25T10:15:38.851Z,99.90
2019-02-25T10:18:08.012Z,99.90
2019-02-25T10:20:43.690Z,99.90
2019-02-25T10:23:19.559Z,99.90
2019-02-25T10:25:55.262Z,99.90
2019-02-25T10:28:25.102Z,99.90
2019-02-25T10:30:53.898Z,99.90
2019-02-25T10:33:28.825Z,99.90
2019-02-25T10:35:57.629Z,99.90
2019-02-25T10:38:26.676Z,99.90
2019-02-25T10:41:03.288Z,99.90
2019-02-25T10:43:38.675Z,99.90
2019-02-25T10:46:15.931Z,99.90
2019-02-25T10:48:44.725Z,99.90
2019-02-25T10:51:14.799Z,99.90
2019-02-25T10:53:51.612Z,99.90
2019-02-25T10:56:27.967Z,99.90
2019-02-25T10:59:04.496Z,99.90
2019-02-25T11:01:34.156Z,99.90
2019-02-25T11:04:02.924Z,99.90
2019-02-25T11:06:37.984Z,99.90
2019-02-25T11:09:48.232Z,99.90
2019-02-25T11:12:25.788Z,99.90
2019-02-25T11:14:54.749Z,99.90
2019-02-25T11:17:24.446Z,99.90
2019-02-25T11:20:01.331Z,99.90
2019-02-25T11:22:39.735Z,99.90
2019-02-25T11:25:15.422Z,99.90
2019-02-25T11:27:44.489Z,99.90
2019-02-25T11:30:14.296Z,99.90
2019-02-25T11:32:55.132Z,99.90
2019-02-25T11:35:22.453Z,99.90
2019-02-25T11:37:54.289Z,99.90
2019-02-25T11:40:31.252Z,99.90
2019-02-25T11:42:59.886Z,99.90
2019-02-25T11:45:42.097Z,99.90
2019-02-25T11:48:11.031Z,99.90
2019-02-25T11:50:39.987Z,99.90
2019-02-25T11:53:16.740Z,99.90
2019-02-25T11:55:45.661Z,99.90
2019-02-25T11:58:14.834Z,99.90
2019-02-25T12:00:50.414Z,99.90
2019-02-25T12:03:19.131Z,99.90
2019-02-25T12:05:47.862Z,99.90
2019-02-25T12:08:26.356Z,99.90
2019-02-25T12:10:55.421Z,99.90
2019-02-25T12:13:24.271Z,99.90
2019-02-25T12:16:00.427Z,99.90
2019-02-25T12:18:29.137Z,99.90
2019-02-25T12:21:11.617Z,99.90
2019-02-25T12:23:47.099Z,99.90
2019-02-25T12:26:23.495Z,99.90
2019-02-25T12:28:52.235Z,99.90
2019-02-25T12:31:20.980Z,99.90
2019-02-25T12:33:55.881Z,99.90
2019-02-25T12:36:24.621Z,99.90
2019-02-25T12:38:53.387Z,99.90
2019-02-25T12:41:28.599Z,99.90
2019-02-25T12:43:57.296Z,99.90
2019-02-25T12:46:40.263Z,99.90
2019-02-25T12:49:09.095Z,99.90
2019-02-25T12:51:37.809Z,99.90
2019-02-25T12:54:13.079Z,99.90
2019-02-25T12:56:41.804Z,99.90
2019-02-25T12:59:10.503Z,99.90
2019-02-25T13:01:46.136Z,99.90
2019-02-25T13:04:14.849Z,99.90
2019-02-25T13:06:43.627Z,99.90
2019-02-25T13:09:20.202Z,99.90
2019-02-25T13:11:48.964Z,99.90
2019-02-25T13:14:17.692Z,99.90
2019-02-25T13:16:52.890Z,99.90
2019-02-25T13:19:21.640Z,99.90
2019-02-25T13:22:02.956Z,99.90
2019-02-25T13:24:39.541Z,99.90
2019-02-25T13:27:15.667Z,99.90
2019-02-25T13:29:44.445Z,99.90
2019-02-25T13:32:13.251Z,99.90
2019-02-25T13:34:48.247Z,99.90
2019-02-25T13:37:17.042Z,99.90
2019-02-25T13:39:45.857Z,99.90
2019-02-25T13:42:21.801Z,99.90
2019-02-25T13:44:50.649Z,99.90
2019-02-25T13:47:33.018Z,99.90
2019-02-25T13:50:02.656Z,99.90
2019-02-25T13:52:31.436Z,99.90
2019-02-25T13:55:07.326Z,99.90
2019-02-25T13:57:36.319Z,99.90
2019-02-25T14:00:20.255Z,99.90
2019-02-25T14:02:49.228Z,99.90
2019-02-25T14:05:18.106Z,99.90
2019-02-25T14:07:54.054Z,99.90
2019-02-25T14:10:25.111Z,99.90
2019-02-25T14:12:54.252Z,99.90
2019-02-25T14:15:29.889Z,99.90
2019-02-25T14:17:58.820Z,99.90
2019-02-25T14:20:28.823Z,99.90
2019-02-25T14:23:04.033Z,99.90
2019-02-25T14:25:41.555Z,99.90
2019-02-25T14:28:16.306Z,99.90
2019-02-25T14:30:45.098Z,99.90
2019-02-25T14:33:14.829Z,99.90
2019-02-25T14:35:53.044Z,99.90
2019-02-25T14:38:22.722Z,99.90
2019-02-25T14:40:53.848Z,99.90
2019-02-25T14:43:28.973Z,99.90
2019-02-25T14:45:58.930Z,99.90
2019-02-25T14:48:42.403Z,99.90
2019-02-25T14:51:11.265Z,99.90
2019-02-25T14:53:41.760Z,99.90
2019-02-25T14:56:17.585Z,99.90
2019-02-25T14:58:47.765Z,99.90
2019-02-25T15:01:18.030Z,99.90
2019-02-25T15:03:55.514Z,99.90
2019-02-25T15:06:25.861Z,99.90
2019-02-25T15:08:57.522Z,99.90
2019-02-25T15:11:34.590Z,99.90
2019-02-25T15:14:11.118Z,99.90
2019-02-25T15:16:47.919Z,99.90
2019-02-25T15:19:16.988Z,99.90
2019-02-25T15:22:06.220Z,99.90
2019-02-25T15:24:35.157Z,99.90
2019-02-25T15:27:04.938Z,99.90
2019-02-25T15:29:45.170Z,99.90
2019-02-25T15:32:15.172Z,99.90
2019-02-25T15:34:44.055Z,99.90
2019-02-25T15:37:20.062Z,99.90
2019-02-25T15:39:49.057Z,99.90
2019-02-25T15:42:18.157Z,99.90
2019-02-25T15:44:53.951Z,99.90
2019-02-25T15:47:23.894Z,99.90
2019-02-25T15:50:06.739Z,99.90
2019-02-25T15:52:39.900Z,99.90
2019-02-25T15:55:17.335Z,99.90
2019-02-25T15:57:47.010Z,99.90
2019-02-25T16:00:27.275Z,99.90
2019-02-25T16:02:57.570Z,99.90
2019-02-25T16:05:29.565Z,99.90
2019-02-25T16:08:06.309Z,99.90
2019-02-25T16:10:35.221Z,99.90
2019-02-25T16:13:11.618Z,99.90
2019-02-25T16:15:45.975Z,99.90
2019-02-25T16:18:14.876Z,99.90
2019-02-25T16:20:46.253Z,99.90
2019-02-25T16:23:20.348Z,99.90
2019-02-25T16:25:56.931Z,99.90
2019-02-25T16:28:33.999Z,99.90
2019-02-25T16:31:08.360Z,99.90
2019-02-25T16:33:44.973Z,99.90
2019-02-25T16:36:13.730Z,99.90
2019-02-25T16:38:42.689Z,99.90
2019-02-25T16:41:27.150Z,99.90
2019-02-25T16:43:50.898Z,99.90
2019-02-25T16:46:20.331Z,99.90
2019-02-25T16:48:57.430Z,99.90
2019-02-25T16:51:35.205Z,99.90
2019-02-25T16:54:11.679Z,99.90
2019-02-25T16:56:40.547Z,99.90
2019-02-25T16:59:11.071Z,99.90
2019-02-25T17:01:46.789Z,99.90
2019-02-25T17:04:16.830Z,99.90
2019-02-25T17:06:46.043Z,99.90
2019-02-25T17:09:27.293Z,99.90
2019-02-25T17:11:57.947Z,99.90
2019-02-25T17:14:27.378Z,99.90
2019-02-25T17:17:02.233Z,99.90
2019-02-25T17:19:31.128Z,99.90
2019-02-25T17:22:00.023Z,99.90
2019-02-25T17:24:36.907Z,99.90
2019-02-25T17:27:14.169Z,99.90
2019-02-25T17:29:51.256Z,99.90
2019-02-25T17:32:21.153Z,99.90
2019-02-25T17:34:51.235Z,99.90
2019-02-25T17:40:32.849Z,99.90
2019-02-25T17:43:02.525Z,99.90
2019-02-25T17:45:32.545Z,99.90
2019-02-25T17:48:10.858Z,99.90
2019-02-25T17:50:41.077Z,99.90
2019-02-25T17:53:24.508Z,99.90
2019-02-25T17:55:55.518Z,99.90
2019-02-25T17:58:24.864Z,99.90
2019-02-25T18:01:01.085Z,99.90
2019-02-25T18:03:31.176Z,99.90
2019-02-25T18:06:00.684Z,99.90
2019-02-25T18:08:39.331Z,99.90
2019-02-25T18:11:08.410Z,99.90
2019-02-25T18:13:37.264Z,99.90
2019-02-25T18:16:14.303Z,99.90
2019-02-25T18:18:45.843Z,99.90
2019-02-25T18:21:23.126Z,99.90
2019-02-25T18:23:52.083Z,99.90
2019-02-25T18:26:21.623Z,99.90
2019-02-25T18:28:57.388Z,99.90
2019-02-25T18:31:26.410Z,99.90
2019-02-25T18:33:55.236Z,99.90
2019-02-25T18:36:31.113Z,99.90
2019-02-25T18:39:07.061Z,99.90
2019-02-25T18:41:50.343Z,99.90
2019-02-25T18:44:19.386Z,99.90
2019-02-25T18:46:49.884Z,99.90
2019-02-25T18:49:26.605Z,99.90
2019-02-25T18:51:56.009Z,99.90
2019-02-25T18:54:39.098Z,99.90
2019-02-25T18:57:09.253Z,99.90
2019-02-25T18:59:38.158Z,99.90
2019-02-25T19:02:14.567Z,99.90
2019-02-25T19:04:45.664Z,99.90
2019-02-25T19:07:15.025Z,99.90
2019-02-25T19:09:51.618Z,99.90
2019-02-25T19:12:20.937Z,99.90
2019-02-25T19:14:52.975Z,99.90
2019-02-25T19:17:28.108Z,99.90
2019-02-25T19:19:57.788Z,99.90
2019-02-25T19:22:28.291Z,99.90
2019-02-25T19:25:04.016Z,99.90
2019-02-25T19:27:35.847Z,99.90
2019-02-25T19:30:12.793Z,99.90
2019-02-25T19:32:41.669Z,99.90
2019-02-25T19:35:11.151Z,99.90
2019-02-25T19:37:46.844Z,99.90
2019-02-25T19:40:24.605Z,99.90
2019-02-25T19:43:07.879Z,99.90
2019-02-25T19:45:38.446Z,99.90
2019-02-25T19:48:16.919Z,99.90
2019-02-25T19:50:50.989Z,99.90
2019-02-25T19:53:19.450Z,99.90
2019-02-25T19:56:00.182Z,99.90
2019-02-25T19:58:31.638Z,99.90
2019-02-25T20:01:01.246Z,99.90
2019-02-25T20:03:37.581Z,99.90
2019-02-25T20:06:11.320Z,99.90
2019-02-25T20:08:38.248Z,99.90
2019-02-25T20:11:14.332Z,99.90
2019-02-25T20:13:43.572Z,99.90
2019-02-25T20:16:15.802Z,99.90
2019-02-25T20:18:49.808Z,99.90
2019-02-25T20:21:20.157Z,99.90
2019-02-25T20:23:50.079Z,99.90
2019-02-25T20:26:26.983Z,99.90
2019-02-25T20:28:56.114Z,99.90
2019-02-25T20:31:24.959Z,99.90
2019-02-25T20:34:01.588Z,99.90
2019-02-25T20:36:33.065Z,99.90
2019-02-25T20:39:11.705Z,99.90
2019-02-25T20:41:49.860Z,99.90
2019-02-25T20:44:33.228Z,99.90
2019-02-25T20:47:03.980Z,99.90
2019-02-25T20:49:33.003Z,99.90
2019-02-25T20:52:08.913Z,99.90
2019-02-25T20:54:40.557Z,99.90
2019-02-25T20:57:21.384Z,99.90
2019-02-25T20:59:51.088Z,99.90
2019-02-25T21:02:21.176Z,99.90
2019-02-25T21:04:58.223Z,99.90
2019-02-25T21:07:28.041Z,99.90
2019-02-25T21:09:59.147Z,99.90
2019-02-25T21:12:35.196Z,99.90
2019-02-25T21:15:04.427Z,99.90
2019-02-25T21:17:35.399Z,99.90
2019-02-25T21:20:12.347Z,99.90
2019-02-25T21:22:41.154Z,99.90
2019-02-25T21:25:10.124Z,99.90
2019-02-25T21:27:45.848Z,99.90
2019-02-25T21:30:15.620Z,99.90
2019-02-25T21:32:47.182Z,99.90
2019-02-25T21:35:23.510Z,99.90
2019-02-25T21:37:52.861Z,99.90
2019-02-25T21:40:35.325Z,99.90
2019-02-25T21:43:14.381Z,99.90
2019-02-25T21:45:49.781Z,99.90
2019-02-25T21:48:21.157Z,99.90
2019-02-25T21:50:48.848Z,99.90
2019-02-25T21:53:24.069Z,99.90
2019-02-25T21:55:53.495Z,99.90
2019-02-25T21:58:37.288Z,99.90
2019-02-25T22:01:06.067Z,99.90
2019-02-25T22:03:39.452Z,99.90
2019-02-25T22:06:12.440Z,99.90
2019-02-25T22:08:41.949Z,99.90
2019-02-25T22:11:13.208Z,99.90
2019-02-25T22:13:48.199Z,99.90
2019-02-25T22:16:16.942Z,99.90
2019-02-25T22:18:47.726Z,99.90
2019-02-25T22:21:22.326Z,99.90
2019-02-25T22:23:54.049Z,99.90
2019-02-25T22:26:24.489Z,99.90
2019-02-25T22:29:00.051Z,99.90
2019-02-25T22:31:29.464Z,99.90
2019-02-25T22:33:58.168Z,99.90
2019-02-25T22:36:33.747Z,99.90
2019-02-25T22:39:03.463Z,99.90
2019-02-25T22:41:47.024Z,99.90
2019-02-25T22:44:22.613Z,99.90
2019-02-25T22:46:59.224Z,99.90
2019-02-25T22:49:28.826Z,99.90
2019-02-25T22:52:00.474Z,99.90
2019-02-25T22:54:39.092Z,99.90
2019-02-25T22:57:06.241Z,99.90
2019-02-25T22:59:50.256Z,99.90
2019-02-25T23:02:18.884Z,99.90
2019-02-25T23:04:49.446Z,99.90
2019-02-25T23:07:24.739Z,99.90
2019-02-25T23:09:54.385Z,99.90
2019-02-25T23:12:24.254Z,99.90
2019-02-25T23:15:03.136Z,99.90
2019-02-25T23:17:35.063Z,99.90
2019-02-25T23:20:03.473Z,99.90
2019-02-25T23:22:39.182Z,99.90
2019-02-25T23:25:08.342Z,99.90
2019-02-25T23:27:38.823Z,99.90
2019-02-25T23:30:14.313Z,99.90
2019-02-25T23:32:43.118Z,99.90
2019-02-25T23:35:15.600Z,99.90
2019-02-25T23:37:49.632Z,99.90
2019-02-25T23:40:19.631Z,99.90
2019-02-25T23:43:01.446Z,99.90
2019-02-25T23:45:38.454Z,99.90
2019-02-25T23:48:14.673Z,99.90
2019-02-25T23:50:43.440Z,99.90
2019-02-25T23:53:12.225Z,99.90
2019-02-25T23:55:49.535Z,99.90
2019-02-25T23:58:20.218Z,99.90
